createdAt,value
2023-03-03T00:01:06.283Z,21.04
2023-03-03T00:03:35.622Z,21.03
2023-03-03T00:06:03.687Z,21.02
2023-03-03T00:08:30.416Z,21.03
2023-03-03T00:10:57.176Z,21.05
2023-03-03T00:13:25.346Z,21.05
2023-03-03T00:15:53.166Z,21.03
2023-03-03T00:18:23.280Z,21.05
2023-03-03T00:20:53.288Z,21.04
2023-03-03T00:23:24.420Z,21.03
2023-03-03T00:25:52.331Z,21.02
2023-03-03T00:28:22.635Z,21.03
2023-03-03T00:30:49.512Z,21.01
2023-03-03T00:33:23.251Z,21.02
2023-03-03T00:35:50.024Z,21.00
2023-03-03T00:38:18.562Z,21.00
2023-03-03T00:40:46.069Z,21.00
2023-03-03T00:43:16.372Z,20.99
2023-03-03T00:45:46.040Z,20.99
2023-03-03T00:48:15.868Z,20.97
2023-03-03T00:50:43.634Z,20.91
2023-03-03T00:53:12.607Z,20.91
2023-03-03T00:55:42.297Z,20.91
2023-03-03T00:58:09.293Z,20.88
2023-03-03T01:00:36.579Z,20.85
2023-03-03T01:03:05.786Z,20.83
2023-03-03T01:05:32.667Z,20.84
2023-03-03T01:07:59.462Z,20.83
2023-03-03T01:10:27.886Z,20.82
2023-03-03T01:12:57.903Z,20.82
2023-03-03T01:15:24.968Z,20.80
2023-03-03T01:17:51.820Z,20.78
2023-03-03T01:20:19.216Z,20.76
2023-03-03T01:22:45.938Z,20.75
2023-03-03T01:25:12.868Z,20.75
2023-03-03T01:27:39.629Z,20.75
2023-03-03T01:30:08.148Z,20.72
2023-03-03T01:32:35.107Z,20.70
2023-03-03T01:35:01.855Z,20.70
2023-03-03T01:37:28.886Z,20.64
2023-03-03T01:39:55.890Z,20.59
2023-03-03T01:42:22.982Z,20.58
2023-03-03T01:44:49.818Z,20.56
2023-03-03T01:47:21.245Z,20.56
2023-03-03T01:49:53.532Z,20.56
2023-03-03T01:52:23.406Z,20.55
2023-03-03T01:54:53.617Z,20.49
2023-03-03T01:57:25.011Z,20.50
2023-03-03T01:59:52.655Z,20.46
2023-03-03T02:02:19.756Z,20.46
2023-03-03T02:04:46.702Z,20.44
2023-03-03T02:07:15.100Z,20.42
2023-03-03T02:09:42.414Z,20.39
2023-03-03T02:12:11.643Z,20.38
2023-03-03T02:14:38.560Z,20.36
2023-03-03T02:17:05.367Z,20.32
2023-03-03T02:19:41.837Z,20.29
2023-03-03T02:22:08.892Z,20.28
2023-03-03T02:24:39.713Z,20.23
2023-03-03T02:27:08.977Z,20.23
2023-03-03T02:29:35.709Z,20.20
2023-03-03T02:32:02.548Z,20.17
2023-03-03T02:34:29.376Z,20.18
2023-03-03T02:36:56.322Z,20.14
2023-03-03T02:39:24.465Z,20.12
2023-03-03T02:41:55.733Z,20.10
2023-03-03T02:44:23.964Z,20.07
2023-03-03T02:46:52.462Z,20.06
2023-03-03T02:49:20.417Z,20.06
2023-03-03T02:51:47.153Z,20.05
2023-03-03T02:54:14.584Z,20.02
2023-03-03T02:56:41.773Z,20.01
2023-03-03T02:59:08.952Z,19.99
2023-03-03T03:01:37.328Z,19.95
2023-03-03T03:04:09.162Z,19.94
2023-03-03T03:06:36.189Z,19.92
2023-03-03T03:09:03.681Z,19.91
2023-03-03T03:11:30.542Z,19.92
2023-03-03T03:13:57.256Z,19.89
2023-03-03T03:16:23.947Z,19.87
2023-03-03T03:18:51.043Z,19.85
2023-03-03T03:21:18.105Z,19.85
2023-03-03T03:23:45.084Z,19.84
2023-03-03T03:26:12.233Z,19.83
2023-03-03T03:28:38.977Z,19.81
2023-03-03T03:31:06.696Z,19.79
2023-03-03T03:33:33.707Z,19.76
2023-03-03T03:36:00.624Z,19.76
2023-03-03T03:38:27.850Z,19.75
2023-03-03T03:40:54.801Z,19.73
2023-03-03T03:43:21.587Z,19.72
2023-03-03T03:45:48.405Z,19.71
2023-03-03T03:48:16.010Z,19.70
2023-03-03T03:50:42.824Z,19.70
2023-03-03T03:53:09.559Z,19.68
2023-03-03T03:55:36.331Z,19.64
2023-03-03T03:58:03.212Z,19.61
2023-03-03T04:00:29.977Z,19.62
2023-03-03T04:02:56.859Z,19.60
2023-03-03T04:05:23.648Z,19.58
2023-03-03T04:07:50.510Z,19.57
2023-03-03T04:10:18.134Z,19.55
2023-03-03T04:12:44.892Z,19.52
2023-03-03T04:15:13.344Z,19.51
2023-03-03T04:17:42.641Z,19.52
2023-03-03T04:20:13.212Z,19.51
2023-03-03T04:22:40.000Z,19.50
2023-03-03T04:25:07.834Z,19.45
2023-03-03T04:27:35.579Z,19.46
2023-03-03T04:30:02.839Z,19.45
2023-03-03T04:32:30.773Z,19.43
2023-03-03T04:35:07.251Z,19.40
2023-03-03T04:37:35.413Z,19.41
2023-03-03T04:40:07.330Z,19.40
2023-03-03T04:42:34.152Z,19.39
2023-03-03T04:45:00.961Z,19.38
2023-03-03T04:47:27.760Z,19.36
2023-03-03T04:49:54.578Z,19.37
2023-03-03T04:52:21.342Z,19.36
2023-03-03T04:54:48.120Z,19.34
2023-03-03T04:57:14.917Z,19.34
2023-03-03T04:59:41.683Z,19.32
2023-03-03T05:02:08.497Z,19.31
2023-03-03T05:04:35.249Z,19.27
2023-03-03T05:07:02.041Z,19.27
2023-03-03T05:09:28.900Z,19.27
2023-03-03T05:11:55.817Z,19.23
2023-03-03T05:14:22.565Z,19.24
2023-03-03T05:16:49.279Z,19.23
2023-03-03T05:19:16.286Z,19.23
2023-03-03T05:21:43.364Z,19.22
2023-03-03T05:24:19.989Z,19.29
2023-03-03T05:26:46.955Z,19.35
2023-03-03T05:29:13.857Z,19.39
2023-03-03T05:31:40.946Z,19.43
2023-03-03T05:34:08.435Z,19.48
2023-03-03T05:36:35.998Z,19.57
2023-03-03T05:39:03.796Z,19.64
2023-03-03T05:41:31.976Z,19.68
2023-03-03T05:43:58.816Z,19.72
2023-03-03T05:46:25.913Z,19.77
2023-03-03T05:48:52.873Z,19.81
2023-03-03T05:51:19.911Z,19.86
2023-03-03T05:53:47.090Z,19.92
2023-03-03T05:56:14.033Z,19.97
2023-03-03T05:58:41.124Z,20.03
2023-03-03T06:01:08.175Z,20.07
2023-03-03T06:03:35.127Z,20.13
2023-03-03T06:06:02.551Z,20.19
2023-03-03T06:08:29.957Z,20.25
2023-03-03T06:10:57.075Z,20.31
2023-03-03T06:13:24.008Z,20.36
2023-03-03T06:15:51.056Z,20.40
2023-03-03T06:18:18.075Z,20.47
2023-03-03T06:20:45.019Z,20.52
2023-03-03T06:23:12.419Z,20.58
2023-03-03T06:25:41.815Z,20.62
2023-03-03T06:28:09.671Z,20.67
2023-03-03T06:30:38.556Z,20.73
2023-03-03T06:33:05.525Z,20.78
2023-03-03T06:35:36.541Z,20.83
2023-03-03T06:38:03.939Z,20.85
2023-03-03T06:40:35.989Z,20.92
2023-03-03T06:43:05.832Z,20.96
2023-03-03T06:45:34.592Z,21.01
2023-03-03T06:48:06.851Z,21.06
2023-03-03T06:50:33.899Z,21.11
2023-03-03T06:53:08.552Z,21.15
2023-03-03T06:55:41.733Z,21.20
2023-03-03T06:58:13.508Z,21.25
2023-03-03T07:00:53.037Z,21.28
2023-03-03T07:03:33.069Z,21.31
2023-03-03T07:06:03.577Z,21.35
2023-03-03T07:08:35.530Z,21.39
2023-03-03T07:11:10.151Z,21.40
2023-03-03T07:13:46.974Z,21.41
2023-03-03T07:16:17.376Z,21.24
2023-03-03T07:18:53.328Z,21.29
2023-03-03T07:21:34.885Z,21.29
2023-03-03T07:24:15.680Z,21.25
2023-03-03T07:26:44.805Z,21.21
2023-03-03T07:29:16.536Z,21.20
2023-03-03T07:31:46.714Z,21.16
2023-03-03T07:34:22.168Z,21.17
2023-03-03T07:36:59.937Z,21.16
2023-03-03T07:39:33.964Z,21.16
2023-03-03T07:42:09.279Z,20.98
2023-03-03T07:44:37.181Z,21.05
2023-03-03T07:47:08.961Z,21.11
2023-03-03T07:49:38.553Z,21.14
2023-03-03T07:52:11.123Z,21.17
2023-03-03T07:54:58.127Z,21.19
2023-03-03T07:57:27.593Z,21.22
2023-03-03T07:59:55.163Z,21.24
2023-03-03T08:02:25.250Z,21.28
2023-03-03T08:04:59.081Z,21.32
2023-03-03T08:07:26.587Z,21.34
2023-03-03T08:09:59.295Z,21.38
2023-03-03T08:12:29.618Z,21.39
2023-03-03T08:14:57.308Z,21.40
2023-03-03T08:17:25.298Z,21.40
2023-03-03T08:19:53.655Z,21.42
2023-03-03T08:22:23.625Z,21.44
2023-03-03T08:24:50.672Z,21.46
2023-03-03T08:27:17.596Z,21.48
2023-03-03T08:29:45.121Z,21.48
2023-03-03T08:32:13.168Z,21.53
2023-03-03T08:34:40.285Z,21.60
2023-03-03T08:37:07.377Z,21.60
2023-03-03T08:39:34.352Z,21.62
2023-03-03T08:42:01.507Z,21.65
2023-03-03T08:44:28.528Z,21.67
2023-03-03T08:46:55.529Z,21.68
2023-03-03T08:49:22.713Z,21.68
2023-03-03T08:51:49.692Z,21.65
2023-03-03T08:54:16.855Z,21.69
2023-03-03T08:56:43.932Z,21.66
2023-03-03T08:59:11.891Z,21.65
2023-03-03T09:01:39.141Z,21.64
2023-03-03T09:04:06.210Z,21.64
2023-03-03T09:06:33.335Z,21.63
2023-03-03T09:09:00.405Z,21.67
2023-03-03T09:11:28.381Z,21.80
2023-03-03T09:14:00.263Z,21.88
2023-03-03T09:16:30.097Z,21.89
2023-03-03T09:18:57.528Z,21.83
2023-03-03T09:21:27.549Z,21.80
2023-03-03T09:23:56.508Z,21.73
2023-03-03T09:26:31.563Z,21.68
2023-03-03T09:29:05.372Z,21.64
2023-03-03T09:31:39.630Z,21.63
2023-03-03T09:34:09.719Z,21.62
2023-03-03T09:36:38.079Z,21.52
2023-03-03T09:39:08.261Z,21.48
2023-03-03T09:41:38.200Z,21.43
2023-03-03T09:44:17.913Z,21.41
2023-03-03T09:46:47.893Z,21.36
2023-03-03T09:49:18.227Z,21.33
2023-03-03T09:51:51.516Z,21.29
2023-03-03T09:54:18.829Z,21.24
2023-03-03T09:56:47.771Z,21.21
2023-03-03T09:59:17.911Z,21.20
2023-03-03T10:01:47.937Z,21.19
2023-03-03T10:04:18.277Z,21.19
2023-03-03T10:06:49.564Z,21.20
2023-03-03T10:09:19.761Z,21.22
2023-03-03T10:11:47.639Z,21.32
2023-03-03T10:14:15.476Z,21.36
2023-03-03T10:16:45.669Z,21.41
2023-03-03T10:19:15.852Z,21.47
2023-03-03T10:21:46.344Z,21.49
2023-03-03T10:24:16.517Z,21.54
2023-03-03T10:26:50.731Z,21.56
2023-03-03T10:29:24.730Z,21.59
2023-03-03T10:31:52.316Z,21.58
2023-03-03T10:34:22.513Z,21.61
2023-03-03T10:36:52.665Z,21.60
2023-03-03T10:39:22.856Z,21.60
2023-03-03T10:41:59.741Z,21.59
2023-03-03T10:44:29.890Z,21.58
2023-03-03T10:47:00.179Z,21.59
2023-03-03T10:49:29.080Z,21.57
2023-03-03T10:51:56.457Z,21.56
2023-03-03T10:54:30.686Z,21.53
2023-03-03T10:57:00.956Z,21.53
2023-03-03T10:59:28.330Z,21.51
2023-03-03T11:01:58.668Z,21.50
2023-03-03T11:04:34.191Z,21.48
2023-03-03T11:07:06.060Z,21.48
2023-03-03T11:09:35.569Z,21.43
2023-03-03T11:12:02.853Z,21.42
2023-03-03T11:14:34.244Z,21.39
2023-03-03T11:17:04.726Z,21.35
2023-03-03T11:19:36.013Z,21.33
2023-03-03T11:22:09.456Z,21.31
2023-03-03T11:24:39.418Z,21.27
2023-03-03T11:27:09.509Z,21.28
2023-03-03T11:29:44.577Z,21.23
2023-03-03T11:32:14.591Z,21.23
2023-03-03T11:34:44.710Z,21.20
2023-03-03T11:37:16.517Z,21.19
2023-03-03T11:39:44.773Z,21.15
2023-03-03T11:42:15.320Z,21.12
2023-03-03T11:44:44.486Z,21.10
2023-03-03T11:47:14.462Z,21.09
2023-03-03T11:49:42.793Z,21.05
2023-03-03T11:52:12.789Z,21.03
2023-03-03T11:54:47.683Z,21.00
2023-03-03T11:57:15.949Z,20.97
2023-03-03T11:59:50.611Z,20.97
2023-03-03T12:02:25.469Z,20.92
2023-03-03T12:04:55.479Z,20.89
2023-03-03T12:07:25.422Z,20.88
2023-03-03T12:09:55.417Z,20.86
2023-03-03T12:12:24.504Z,20.83
2023-03-03T12:14:54.956Z,20.81
2023-03-03T12:17:25.025Z,20.78
2023-03-03T12:19:54.998Z,20.76
2023-03-03T12:22:29.964Z,20.74
2023-03-03T12:25:00.567Z,20.74
2023-03-03T12:27:30.551Z,20.70
2023-03-03T12:30:00.646Z,20.67
2023-03-03T12:32:28.053Z,20.64
2023-03-03T12:35:09.540Z,20.64
2023-03-03T12:37:36.927Z,20.59
2023-03-03T12:40:08.722Z,20.57
2023-03-03T12:42:42.460Z,20.53
2023-03-03T12:45:12.685Z,20.53
2023-03-03T12:47:46.676Z,20.51
2023-03-03T12:50:23.837Z,20.50
2023-03-03T12:52:51.263Z,20.49
2023-03-03T12:55:28.361Z,20.50
2023-03-03T12:58:03.348Z,20.51
2023-03-03T13:00:36.458Z,20.54
2023-03-03T13:03:03.806Z,20.57
2023-03-03T13:05:46.510Z,20.62
2023-03-03T13:08:16.981Z,20.66
2023-03-03T13:10:50.717Z,20.72
2023-03-03T13:13:20.896Z,20.76
2023-03-03T13:15:55.924Z,20.82
2023-03-03T13:18:26.446Z,20.88
2023-03-03T13:21:08.753Z,20.96
2023-03-03T13:23:38.757Z,21.02
2023-03-03T13:26:21.139Z,21.09
2023-03-03T13:28:48.752Z,21.18
2023-03-03T13:31:20.431Z,21.20
2023-03-03T13:33:53.995Z,21.26
2023-03-03T13:36:23.804Z,21.30
2023-03-03T13:38:53.632Z,21.35
2023-03-03T13:41:24.136Z,21.36
2023-03-03T13:43:54.189Z,21.36
2023-03-03T13:46:34.066Z,21.36
2023-03-03T13:49:04.045Z,21.42
2023-03-03T13:51:34.142Z,21.42
2023-03-03T13:54:02.675Z,21.44
2023-03-03T13:56:32.403Z,21.45
2023-03-03T13:59:09.033Z,21.43
2023-03-03T14:01:47.951Z,21.41
2023-03-03T14:04:15.675Z,21.39
2023-03-03T14:06:48.794Z,21.36
2023-03-03T14:09:19.428Z,21.36
2023-03-03T14:11:49.073Z,21.34
2023-03-03T14:14:19.032Z,21.31
2023-03-03T14:16:46.726Z,21.32
2023-03-03T14:19:17.806Z,21.30
2023-03-03T14:21:47.980Z,21.25
2023-03-03T14:24:18.040Z,21.26
2023-03-03T14:26:49.019Z,21.24
2023-03-03T14:29:21.582Z,21.21
2023-03-03T14:31:48.875Z,21.19
2023-03-03T14:34:30.514Z,21.17
2023-03-03T14:37:01.159Z,21.15
2023-03-03T14:39:31.245Z,21.13
2023-03-03T14:41:59.638Z,21.11
2023-03-03T14:44:27.921Z,21.09
2023-03-03T14:46:57.929Z,21.08
2023-03-03T14:49:27.994Z,21.06
2023-03-03T14:52:01.579Z,21.04
2023-03-03T14:54:34.045Z,21.02
2023-03-03T14:57:04.071Z,20.99
2023-03-03T14:59:31.592Z,20.96
2023-03-03T15:02:01.867Z,20.95
2023-03-03T15:04:31.745Z,20.94
2023-03-03T15:06:59.683Z,20.91
2023-03-03T15:09:36.163Z,20.89
2023-03-03T15:12:13.184Z,20.86
2023-03-03T15:14:45.035Z,20.84
2023-03-03T15:17:17.067Z,20.82
2023-03-03T15:19:44.445Z,20.78
2023-03-03T15:22:18.237Z,20.77
2023-03-03T15:24:54.239Z,20.73
2023-03-03T15:27:27.941Z,20.71
2023-03-03T15:29:55.535Z,20.68
2023-03-03T15:32:23.073Z,20.68
2023-03-03T15:34:54.592Z,20.65
2023-03-03T15:37:25.132Z,20.62
2023-03-03T15:39:52.470Z,20.60
2023-03-03T15:42:24.565Z,20.59
2023-03-03T15:44:53.642Z,20.56
2023-03-03T15:47:29.215Z,20.53
2023-03-03T15:50:02.549Z,20.51
2023-03-03T15:52:33.657Z,20.48
2023-03-03T15:55:07.824Z,20.49
2023-03-03T15:57:36.201Z,20.45
2023-03-03T16:00:03.532Z,20.45
2023-03-03T16:02:33.743Z,20.41
2023-03-03T16:05:19.078Z,20.40
2023-03-03T16:07:47.902Z,20.39
2023-03-03T16:10:19.534Z,20.36
2023-03-03T16:12:50.944Z,20.36
2023-03-03T16:15:20.571Z,20.34
2023-03-03T16:17:51.967Z,20.30
2023-03-03T16:20:23.179Z,20.31
2023-03-03T16:22:54.733Z,20.28
2023-03-03T16:25:24.024Z,20.26
2023-03-03T16:27:52.075Z,20.25
2023-03-03T16:30:21.688Z,20.22
2023-03-03T16:32:51.047Z,20.18
2023-03-03T16:35:27.213Z,20.17
2023-03-03T16:37:58.224Z,20.18
2023-03-03T16:40:28.474Z,20.14
2023-03-03T16:43:01.316Z,20.12
2023-03-03T16:45:35.755Z,20.12
2023-03-03T16:48:12.666Z,20.10
2023-03-03T16:50:46.885Z,20.14
2023-03-03T16:53:15.270Z,20.17
2023-03-03T16:55:51.514Z,20.22
2023-03-03T16:58:21.434Z,20.26
2023-03-03T17:00:52.041Z,20.32
2023-03-03T17:03:22.179Z,20.37
2023-03-03T17:05:53.493Z,20.41
2023-03-03T17:08:20.869Z,20.49
2023-03-03T17:10:51.007Z,20.54
2023-03-03T17:13:19.420Z,20.63
2023-03-03T17:15:48.048Z,20.66
2023-03-03T17:18:18.108Z,20.71
2023-03-03T17:20:46.398Z,20.73
2023-03-03T17:23:13.710Z,20.76
2023-03-03T17:25:41.074Z,20.76
2023-03-03T17:28:09.452Z,20.79
2023-03-03T17:30:44.036Z,20.82
2023-03-03T17:33:14.146Z,20.83
2023-03-03T17:35:44.219Z,20.82
2023-03-03T17:38:14.288Z,20.83
2023-03-03T17:40:44.430Z,20.83
2023-03-03T17:43:14.187Z,20.83
2023-03-03T17:45:43.061Z,20.83
2023-03-03T17:48:11.485Z,20.83
2023-03-03T17:50:39.844Z,20.81
2023-03-03T17:53:08.172Z,20.83
2023-03-03T17:55:38.934Z,20.82
2023-03-03T17:58:07.482Z,20.80
2023-03-03T18:00:37.494Z,20.80
2023-03-03T18:03:07.586Z,20.80
2023-03-03T18:05:37.831Z,20.79
2023-03-03T18:08:07.906Z,20.78
2023-03-03T18:10:42.844Z,20.77
2023-03-03T18:13:13.117Z,20.76
2023-03-03T18:15:43.248Z,20.74
2023-03-03T18:18:10.721Z,20.74
2023-03-03T18:20:40.750Z,20.73
2023-03-03T18:23:10.761Z,20.72
2023-03-03T18:25:40.708Z,20.69
2023-03-03T18:28:08.192Z,20.68
2023-03-03T18:30:42.987Z,20.66
2023-03-03T18:33:11.505Z,20.64
2023-03-03T18:35:38.876Z,20.64
2023-03-03T18:38:10.137Z,20.63
2023-03-03T18:40:48.935Z,20.60
2023-03-03T18:43:18.839Z,20.56
2023-03-03T18:45:46.141Z,20.55
2023-03-03T18:48:13.724Z,20.52
2023-03-03T18:50:41.019Z,20.51
2023-03-03T18:53:10.978Z,20.48
2023-03-03T18:55:42.222Z,20.47
2023-03-03T18:58:12.459Z,20.44
2023-03-03T19:00:45.388Z,20.42
2023-03-03T19:03:15.589Z,20.40
2023-03-03T19:05:48.151Z,20.39
2023-03-03T19:08:18.138Z,20.35
2023-03-03T19:10:48.112Z,20.33
2023-03-03T19:13:18.176Z,20.31
2023-03-03T19:15:47.320Z,20.27
2023-03-03T19:18:14.635Z,20.25
2023-03-03T19:20:43.606Z,20.25
2023-03-03T19:23:14.305Z,20.22
2023-03-03T19:25:41.430Z,20.19
2023-03-03T19:28:11.462Z,20.17
2023-03-03T19:30:42.450Z,20.16
2023-03-03T19:33:16.068Z,20.13
2023-03-03T19:35:49.144Z,20.12
2023-03-03T19:38:20.789Z,20.11
2023-03-03T19:40:50.797Z,20.07
2023-03-03T19:43:18.016Z,20.06
2023-03-03T19:45:47.996Z,20.03
2023-03-03T19:48:17.524Z,20.03
2023-03-03T19:50:46.987Z,20.01
2023-03-03T19:53:14.314Z,19.98
2023-03-03T19:55:41.993Z,19.95
2023-03-03T19:58:18.688Z,19.93
2023-03-03T20:00:48.837Z,19.88
2023-03-03T20:03:18.829Z,19.87
2023-03-03T20:05:49.932Z,19.86
2023-03-03T20:08:17.219Z,19.85
2023-03-03T20:10:48.890Z,19.83
2023-03-03T20:13:18.973Z,19.82
2023-03-03T20:15:49.077Z,19.80
2023-03-03T20:18:19.169Z,19.78
2023-03-03T20:20:48.849Z,19.75
2023-03-03T20:23:17.243Z,19.73
2023-03-03T20:25:47.113Z,19.71
2023-03-03T20:28:18.386Z,19.68
2023-03-03T20:30:50.726Z,19.67
2023-03-03T20:33:26.870Z,19.62
2023-03-03T20:36:02.258Z,19.60
2023-03-03T20:38:35.728Z,19.57
2023-03-03T20:41:07.130Z,19.54
2023-03-03T20:43:37.118Z,19.52
2023-03-03T20:46:08.372Z,19.50
2023-03-03T20:48:44.850Z,19.46
2023-03-03T20:51:14.950Z,19.46
2023-03-03T20:53:43.356Z,19.43
2023-03-03T20:56:13.371Z,19.40
2023-03-03T20:58:40.701Z,19.41
2023-03-03T21:01:10.676Z,19.41
2023-03-03T21:03:39.292Z,19.37
2023-03-03T21:06:09.710Z,19.35
2023-03-03T21:08:39.759Z,19.34
2023-03-03T21:11:09.201Z,19.31
2023-03-03T21:13:45.418Z,19.30
2023-03-03T21:16:17.509Z,19.27
2023-03-03T21:18:57.631Z,19.26
2023-03-03T21:21:27.528Z,19.24
2023-03-03T21:23:54.923Z,19.23
2023-03-03T21:26:26.139Z,19.20
2023-03-03T21:28:57.550Z,19.17
2023-03-03T21:31:26.558Z,19.16
2023-03-03T21:33:55.192Z,19.14
2023-03-03T21:36:25.192Z,19.14
2023-03-03T21:38:53.717Z,19.12
2023-03-03T21:41:21.060Z,19.08
2023-03-03T21:43:49.373Z,19.07
2023-03-03T21:46:19.562Z,19.06
2023-03-03T21:48:46.823Z,19.05
2023-03-03T21:51:15.138Z,19.01
2023-03-03T21:53:44.428Z,18.99
2023-03-03T21:56:13.895Z,18.95
2023-03-03T21:58:41.441Z,18.94
2023-03-03T22:01:08.423Z,18.94
2023-03-03T22:03:38.075Z,18.92
2023-03-03T22:06:05.157Z,18.92
2023-03-03T22:08:32.074Z,18.90
2023-03-03T22:10:58.977Z,18.89
2023-03-03T22:13:26.733Z,18.88
2023-03-03T22:15:53.739Z,18.86
2023-03-03T22:18:21.067Z,18.85
2023-03-03T22:20:48.658Z,18.84
2023-03-03T22:23:15.871Z,18.84
2023-03-03T22:25:42.936Z,18.81
2023-03-03T22:28:09.832Z,18.80
2023-03-03T22:30:37.206Z,18.80
2023-03-03T22:33:04.170Z,18.77
2023-03-03T22:35:31.228Z,18.75
2023-03-03T22:37:58.394Z,18.76
2023-03-03T22:40:25.917Z,18.88
2023-03-03T22:42:53.000Z,18.94
2023-03-03T22:45:24.515Z,19.01
2023-03-03T22:47:51.388Z,19.06
2023-03-03T22:50:19.613Z,19.12
2023-03-03T22:52:46.544Z,19.17
2023-03-03T22:55:13.448Z,19.23
2023-03-03T22:57:40.426Z,19.29
2023-03-03T23:00:12.322Z,19.37
2023-03-03T23:02:40.531Z,19.45
2023-03-03T23:05:10.342Z,19.51
2023-03-03T23:07:38.251Z,19.58
2023-03-03T23:10:05.848Z,19.66
2023-03-03T23:12:34.197Z,19.73
2023-03-03T23:15:04.604Z,19.79
2023-03-03T23:17:31.631Z,19.86
2023-03-03T23:20:01.910Z,19.92
2023-03-03T23:22:30.273Z,20.02
2023-03-03T23:24:59.853Z,20.09
2023-03-03T23:27:28.077Z,20.15
2023-03-03T23:29:55.962Z,20.22
2023-03-03T23:32:25.328Z,20.29
2023-03-03T23:34:59.631Z,20.37
2023-03-03T23:37:27.264Z,20.46
2023-03-03T23:39:54.103Z,20.52
2023-03-03T23:42:21.325Z,20.54
2023-03-03T23:44:48.423Z,20.60
2023-03-03T23:47:15.297Z,20.64
2023-03-03T23:49:42.208Z,20.65
2023-03-03T23:52:09.089Z,20.69
2023-03-03T23:54:35.992Z,20.73
2023-03-03T23:57:02.996Z,20.75
2023-03-03T23:59:29.850Z,20.81
